createdAt,value
2023-02-22T00:02:11.419Z,11.52
2023-02-22T00:04:40.199Z,11.50
2023-02-22T00:07:08.714Z,11.41
2023-02-22T00:09:36.966Z,11.29
2023-02-22T00:12:05.543Z,11.32
2023-02-22T00:14:33.750Z,11.46
2023-02-22T00:17:02.559Z,11.49
2023-02-22T00:19:31.310Z,11.52
2023-02-22T00:22:00.251Z,11.63
2023-02-22T00:24:29.688Z,11.67
2023-02-22T00:26:57.838Z,11.67
2023-02-22T00:29:26.551Z,11.65
2023-02-22T00:31:54.887Z,11.68
2023-02-22T00:34:24.406Z,11.68
2023-02-22T00:36:52.552Z,11.64
2023-02-22T00:39:20.978Z,11.49
2023-02-22T00:41:49.906Z,11.34
2023-02-22T00:44:18.097Z,11.38
2023-02-22T00:46:46.729Z,11.48
2023-02-22T00:49:16.947Z,11.45
2023-02-22T00:51:45.382Z,11.38
2023-02-22T00:54:14.514Z,11.23
2023-02-22T00:56:43.105Z,11.13
2023-02-22T00:59:11.886Z,11.06
2023-02-22T01:01:40.226Z,11.09
2023-02-22T01:04:09.612Z,11.09
2023-02-22T01:06:38.145Z,11.07
2023-02-22T01:09:07.860Z,11.07
2023-02-22T01:11:36.020Z,11.12
2023-02-22T01:14:04.102Z,11.14
2023-02-22T01:16:32.194Z,11.12
2023-02-22T01:19:01.512Z,11.12
2023-02-22T01:21:30.359Z,11.13
2023-02-22T01:23:58.427Z,11.17
2023-02-22T01:26:27.626Z,11.22
2023-02-22T01:28:55.803Z,11.31
2023-02-22T01:31:24.201Z,11.26
2023-02-22T01:33:52.537Z,11.25
2023-02-22T01:36:20.733Z,11.24
2023-02-22T01:38:48.797Z,11.30
2023-02-22T01:41:18.727Z,11.26
2023-02-22T01:43:46.993Z,11.32
2023-02-22T01:46:25.548Z,11.32
2023-02-22T01:49:02.379Z,11.29
2023-02-22T01:51:37.946Z,11.28
2023-02-22T01:54:30.370Z,11.27
2023-02-22T01:57:07.618Z,11.25
2023-02-22T01:59:40.405Z,11.31
2023-02-22T02:02:09.046Z,11.37
2023-02-22T02:04:38.287Z,11.29
2023-02-22T02:07:09.226Z,11.23
2023-02-22T02:09:40.186Z,11.23
2023-02-22T02:12:11.222Z,11.31
2023-02-22T02:14:41.966Z,11.24
2023-02-22T02:17:15.661Z,11.24
2023-02-22T02:20:14.097Z,11.30
2023-02-22T02:22:46.828Z,11.26
2023-02-22T02:25:39.470Z,11.22
2023-02-22T02:28:28.947Z,11.30
2023-02-22T02:31:16.405Z,11.35
2023-02-22T02:34:05.461Z,11.35
2023-02-22T02:37:10.503Z,11.48
2023-02-22T02:39:49.404Z,11.55
2023-02-22T02:42:23.919Z,11.55
2023-02-22T02:45:17.900Z,11.55
2023-02-22T02:47:53.535Z,11.55
2023-02-22T02:50:27.461Z,11.68
2023-02-22T02:52:59.721Z,11.78
2023-02-22T02:55:31.714Z,11.87
2023-02-22T02:58:00.402Z,11.75
2023-02-22T03:00:39.299Z,11.48
2023-02-22T03:03:28.851Z,11.52
2023-02-22T03:06:07.900Z,11.65
2023-02-22T03:08:39.137Z,11.61
2023-02-22T03:11:23.550Z,11.71
2023-02-22T03:14:13.512Z,11.82
2023-02-22T03:17:02.130Z,11.73
2023-02-22T03:19:30.258Z,11.80
2023-02-22T03:22:10.148Z,11.95
2023-02-22T03:25:07.107Z,11.95
2023-02-22T03:27:44.805Z,11.77
2023-02-22T03:30:24.242Z,11.75
2023-02-22T03:33:10.744Z,11.73
2023-02-22T03:35:48.634Z,11.66
2023-02-22T03:38:20.494Z,11.78
2023-02-22T03:40:54.614Z,11.86
2023-02-22T03:43:27.794Z,11.86
2023-02-22T03:45:58.802Z,11.95
2023-02-22T03:48:44.248Z,11.95
2023-02-22T03:51:17.302Z,11.87
2023-02-22T03:53:48.226Z,11.76
2023-02-22T03:56:23.637Z,11.89
2023-02-22T03:58:52.892Z,11.94
2023-02-22T04:01:23.914Z,11.94
2023-02-22T04:03:52.079Z,11.91
2023-02-22T04:06:20.464Z,11.91
2023-02-22T04:08:48.876Z,11.95
2023-02-22T04:11:19.280Z,11.93
2023-02-22T04:13:47.559Z,11.80
2023-02-22T04:16:16.047Z,11.65
2023-02-22T04:18:44.425Z,11.63
2023-02-22T04:21:15.167Z,11.50
2023-02-22T04:23:47.709Z,11.43
2023-02-22T04:26:16.328Z,11.39
2023-02-22T04:28:47.956Z,11.30
2023-02-22T04:31:18.971Z,11.23
2023-02-22T04:33:47.944Z,11.16
2023-02-22T04:36:19.531Z,11.10
2023-02-22T04:38:48.942Z,10.90
2023-02-22T04:41:18.813Z,10.64
2023-02-22T04:43:47.429Z,10.53
2023-02-22T04:46:24.179Z,10.34
2023-02-22T04:48:54.401Z,10.35
2023-02-22T04:51:26.572Z,10.30
2023-02-22T04:53:59.103Z,10.33
2023-02-22T04:56:27.574Z,10.28
2023-02-22T04:58:55.930Z,10.24
2023-02-22T05:01:25.014Z,10.28
2023-02-22T05:03:53.366Z,10.24
2023-02-22T05:06:21.583Z,10.26
2023-02-22T05:08:49.839Z,10.39
2023-02-22T05:11:18.413Z,10.49
2023-02-22T05:13:47.225Z,10.49
2023-02-22T05:16:16.481Z,10.47
2023-02-22T05:18:44.594Z,10.50
2023-02-22T05:21:13.673Z,10.63
2023-02-22T05:23:41.861Z,10.77
2023-02-22T05:26:11.657Z,10.93
2023-02-22T05:28:40.072Z,11.04
2023-02-22T05:31:08.882Z,11.23
2023-02-22T05:33:37.072Z,11.55
2023-02-22T05:36:07.813Z,11.95
2023-02-22T05:38:43.538Z,12.09
2023-02-22T05:41:13.672Z,12.02
2023-02-22T05:43:41.895Z,11.96
2023-02-22T05:46:11.194Z,11.90
2023-02-22T05:48:39.760Z,12.04
2023-02-22T05:51:09.827Z,12.04
2023-02-22T05:53:38.084Z,11.99
2023-02-22T05:56:06.731Z,11.98
2023-02-22T05:58:34.773Z,11.79
2023-02-22T06:01:03.446Z,11.81
2023-02-22T06:03:31.767Z,11.79
2023-02-22T06:05:59.914Z,11.72
2023-02-22T06:08:28.208Z,11.86
2023-02-22T06:10:56.322Z,11.96
2023-02-22T06:13:24.561Z,11.94
2023-02-22T06:15:52.996Z,12.04
2023-02-22T06:18:21.420Z,12.12
2023-02-22T06:20:49.588Z,12.20
2023-02-22T06:23:17.759Z,12.26
2023-02-22T06:25:46.000Z,12.30
2023-02-22T06:28:14.571Z,12.25
2023-02-22T06:30:43.180Z,12.18
2023-02-22T06:33:12.394Z,12.09
2023-02-22T06:35:40.478Z,12.11
2023-02-22T06:38:09.066Z,12.21
2023-02-22T06:40:37.385Z,12.33
2023-02-22T06:43:05.495Z,12.39
2023-02-22T06:45:34.768Z,12.32
2023-02-22T06:48:02.861Z,12.28
2023-02-22T06:50:31.842Z,12.26
2023-02-22T06:53:00.857Z,12.31
2023-02-22T06:55:31.934Z,12.31
2023-02-22T06:58:00.781Z,12.34
2023-02-22T07:00:31.112Z,12.48
2023-02-22T07:03:00.279Z,12.53
2023-02-22T07:05:29.422Z,12.46
2023-02-22T07:08:05.119Z,12.41
2023-02-22T07:10:35.205Z,12.47
2023-02-22T07:13:05.801Z,12.40
2023-02-22T07:15:35.402Z,12.19
2023-02-22T07:18:04.205Z,12.03
2023-02-22T07:20:32.988Z,11.89
2023-02-22T07:23:01.691Z,11.62
2023-02-22T07:25:30.046Z,11.53
2023-02-22T07:27:59.709Z,11.47
2023-02-22T07:30:34.062Z,11.49
2023-02-22T07:33:06.370Z,11.67
2023-02-22T07:35:37.071Z,11.81
2023-02-22T07:38:08.624Z,11.99
2023-02-22T07:40:38.512Z,12.17
2023-02-22T07:43:18.720Z,12.43
2023-02-22T07:45:49.065Z,12.44
2023-02-22T07:48:19.744Z,12.44
2023-02-22T07:50:49.057Z,12.45
2023-02-22T07:53:20.365Z,12.37
2023-02-22T07:55:52.010Z,12.30
2023-02-22T07:58:22.642Z,12.28
2023-02-22T08:00:50.853Z,12.16
2023-02-22T08:03:21.768Z,12.12
2023-02-22T08:05:53.745Z,12.23
2023-02-22T08:08:22.083Z,12.34
2023-02-22T08:10:51.174Z,12.20
2023-02-22T08:13:22.316Z,12.14
2023-02-22T08:15:53.640Z,12.18
2023-02-22T08:18:23.509Z,12.26
2023-02-22T08:20:53.760Z,12.34
2023-02-22T08:23:25.462Z,12.36
2023-02-22T08:25:54.136Z,12.52
2023-02-22T08:28:24.506Z,12.58
2023-02-22T08:30:53.078Z,12.70
2023-02-22T08:33:21.959Z,12.69
2023-02-22T08:35:51.923Z,12.65
2023-02-22T08:38:28.060Z,12.61
2023-02-22T08:40:57.048Z,12.67
2023-02-22T08:43:25.424Z,12.93
2023-02-22T08:45:56.223Z,13.14
2023-02-22T08:48:25.616Z,13.34
2023-02-22T08:50:53.806Z,13.76
2023-02-22T08:53:21.921Z,14.25
2023-02-22T08:55:49.982Z,14.67
2023-02-22T08:58:18.357Z,15.00
2023-02-22T09:00:47.455Z,15.43
2023-02-22T09:03:15.798Z,15.70
2023-02-22T09:05:44.858Z,15.85
2023-02-22T09:08:13.483Z,15.80
2023-02-22T09:10:42.102Z,15.81
2023-02-22T09:13:12.097Z,16.06
2023-02-22T09:15:40.153Z,16.32
2023-02-22T09:18:12.501Z,16.57
2023-02-22T09:20:42.655Z,16.84
2023-02-22T09:23:10.936Z,16.92
2023-02-22T09:25:41.148Z,16.59
2023-02-22T09:28:09.784Z,16.86
2023-02-22T09:30:38.689Z,16.80
2023-02-22T09:33:13.293Z,16.75
2023-02-22T09:35:46.438Z,16.67
2023-02-22T09:38:20.455Z,16.48
2023-02-22T09:41:06.442Z,16.45
2023-02-22T09:43:55.809Z,16.28
2023-02-22T09:46:34.958Z,16.52
2023-02-22T09:49:25.448Z,16.56
2023-02-22T09:52:06.228Z,16.73
2023-02-22T09:54:52.132Z,16.62
2023-02-22T09:57:28.945Z,16.75
2023-02-22T10:00:13.465Z,16.50
2023-02-22T10:02:58.103Z,16.13
2023-02-22T10:05:33.933Z,16.14
2023-02-22T10:08:06.067Z,16.08
2023-02-22T10:10:39.448Z,16.02
2023-02-22T10:13:27.270Z,15.97
2023-02-22T10:16:14.350Z,16.05
2023-02-22T10:19:15.722Z,16.30
2023-02-22T10:22:04.920Z,16.55
2023-02-22T10:24:56.201Z,16.48
2023-02-22T10:27:37.416Z,16.51
2023-02-22T10:30:25.357Z,16.37
2023-02-22T10:33:05.559Z,16.58
2023-02-22T10:35:36.529Z,16.50
2023-02-22T10:38:23.791Z,16.35
2023-02-22T10:41:01.024Z,16.30
2023-02-22T10:43:30.367Z,15.93
2023-02-22T10:46:03.491Z,15.57
2023-02-22T10:48:35.572Z,15.50
2023-02-22T10:51:08.641Z,15.69
2023-02-22T10:53:38.991Z,15.53
2023-02-22T10:56:12.989Z,15.39
2023-02-22T10:58:43.410Z,15.31
2023-02-22T11:01:31.195Z,15.20
2023-02-22T11:04:13.239Z,15.50
2023-02-22T11:06:45.654Z,15.61
2023-02-22T11:09:25.159Z,15.76
2023-02-22T11:12:11.709Z,15.85
2023-02-22T11:14:39.832Z,15.92
2023-02-22T11:17:10.834Z,15.99
2023-02-22T11:19:50.212Z,16.00
2023-02-22T11:22:25.658Z,15.85
2023-02-22T11:24:59.312Z,15.73
2023-02-22T11:27:40.729Z,15.81
2023-02-22T11:30:18.081Z,15.88
2023-02-22T11:32:50.814Z,15.90
2023-02-22T11:35:44.326Z,15.81
2023-02-22T11:38:21.309Z,15.43
2023-02-22T11:41:11.558Z,15.37
2023-02-22T11:43:40.677Z,15.51
2023-02-22T11:46:27.985Z,15.68
2023-02-22T11:49:07.186Z,15.79
2023-02-22T11:52:16.712Z,15.84
2023-02-22T11:55:32.616Z,15.68
2023-02-22T11:58:28.437Z,15.68
2023-02-22T12:01:17.615Z,15.79
2023-02-22T12:03:45.999Z,15.76
2023-02-22T12:06:14.654Z,15.66
2023-02-22T12:09:00.521Z,15.54
2023-02-22T12:12:04.473Z,15.48
2023-02-22T12:14:54.261Z,15.41
2023-02-22T12:17:43.586Z,15.37
2023-02-22T12:20:22.651Z,15.28
2023-02-22T12:23:19.686Z,15.19
2023-02-22T12:26:11.829Z,15.44
2023-02-22T12:28:59.525Z,15.33
2023-02-22T12:31:34.179Z,15.22
2023-02-22T12:34:27.438Z,15.51
2023-02-22T12:37:27.911Z,15.67
2023-02-22T12:40:27.348Z,15.80
2023-02-22T12:43:11.137Z,15.98
2023-02-22T12:46:04.764Z,16.17
2023-02-22T12:48:52.029Z,16.15
2023-02-22T12:51:28.825Z,16.21
2023-02-22T12:54:26.112Z,16.14
2023-02-22T12:57:10.025Z,16.23
2023-02-22T13:00:01.553Z,16.02
2023-02-22T13:02:44.125Z,16.04
2023-02-22T13:05:18.850Z,16.05
2023-02-22T13:08:05.855Z,16.01
2023-02-22T13:10:58.120Z,15.96
2023-02-22T13:13:41.673Z,15.79
2023-02-22T13:16:22.148Z,15.69
2023-02-22T13:19:03.828Z,15.40
2023-02-22T13:21:53.120Z,15.32
2023-02-22T13:24:31.608Z,15.11
2023-02-22T13:27:02.099Z,14.93
2023-02-22T13:29:43.591Z,14.88
2023-02-22T13:32:32.742Z,14.78
2023-02-22T13:35:19.671Z,14.83
2023-02-22T13:38:16.978Z,14.85
2023-02-22T13:41:00.914Z,14.53
2023-02-22T13:43:29.145Z,14.15
2023-02-22T13:46:22.144Z,14.16
2023-02-22T13:49:20.674Z,14.26
2023-02-22T13:51:51.934Z,14.37
2023-02-22T13:54:46.318Z,14.37
2023-02-22T13:57:27.207Z,14.28
2023-02-22T14:00:15.643Z,14.35
2023-02-22T14:03:08.198Z,14.40
2023-02-22T14:05:41.629Z,14.49
2023-02-22T14:08:19.028Z,14.54
2023-02-22T14:10:48.693Z,14.43
2023-02-22T14:13:19.649Z,14.34
2023-02-22T14:16:00.263Z,14.43
2023-02-22T14:18:45.797Z,14.36
2023-02-22T14:21:16.760Z,14.21
2023-02-22T14:23:56.631Z,14.02
2023-02-22T14:26:36.894Z,13.97
2023-02-22T14:29:08.186Z,13.90
2023-02-22T14:31:46.683Z,13.84
2023-02-22T14:34:16.355Z,13.84
2023-02-22T14:36:54.624Z,13.79
2023-02-22T14:39:41.581Z,13.58
2023-02-22T14:42:44.418Z,13.53
2023-02-22T14:45:30.095Z,13.46
2023-02-22T14:48:04.254Z,13.31
2023-02-22T14:50:41.117Z,13.22
2023-02-22T14:53:33.852Z,13.31
2023-02-22T14:56:07.050Z,13.37
2023-02-22T14:58:42.880Z,13.41
2023-02-22T15:01:49.097Z,13.49
2023-02-22T15:04:31.235Z,13.32
2023-02-22T15:07:01.283Z,13.29
2023-02-22T15:09:34.513Z,13.18
2023-02-22T15:12:02.993Z,13.04
2023-02-22T15:14:37.733Z,12.99
2023-02-22T15:17:22.956Z,12.95
2023-02-22T15:19:52.757Z,12.51
2023-02-22T15:22:27.107Z,12.40
2023-02-22T15:25:05.259Z,12.37
2023-02-22T15:27:37.342Z,12.21
2023-02-22T15:30:24.186Z,12.06
2023-02-22T15:33:03.625Z,11.95
2023-02-22T15:35:33.813Z,11.75
2023-02-22T15:38:16.106Z,11.52
2023-02-22T15:40:50.796Z,11.29
2023-02-22T15:43:24.475Z,11.15
2023-02-22T15:45:52.947Z,11.01
2023-02-22T15:48:22.193Z,10.97
2023-02-22T15:51:07.864Z,11.04
2023-02-22T15:53:49.756Z,11.08
2023-02-22T15:56:26.081Z,10.95
2023-02-22T15:59:00.844Z,10.65
2023-02-22T16:01:30.576Z,10.42
2023-02-22T16:03:59.878Z,10.27
2023-02-22T16:06:29.049Z,10.12
2023-02-22T16:09:01.096Z,9.92
2023-02-22T16:11:32.777Z,9.94
2023-02-22T16:14:07.615Z,9.85
2023-02-22T16:16:41.640Z,9.79
2023-02-22T16:19:28.048Z,9.79
2023-02-22T16:21:59.962Z,9.76
2023-02-22T16:24:31.115Z,9.90
2023-02-22T16:27:12.170Z,10.02
2023-02-22T16:29:40.541Z,10.07
2023-02-22T16:32:09.321Z,10.08
2023-02-22T16:34:38.056Z,10.15
2023-02-22T16:37:22.278Z,10.26
2023-02-22T16:39:53.831Z,10.43
2023-02-22T16:42:24.380Z,10.40
2023-02-22T16:44:53.450Z,10.12
2023-02-22T16:47:21.640Z,10.08
2023-02-22T16:49:52.968Z,10.01
2023-02-22T16:52:21.125Z,10.03
2023-02-22T16:54:51.214Z,10.18
2023-02-22T16:57:22.441Z,10.08
2023-02-22T16:59:52.746Z,9.98
2023-02-22T17:02:21.626Z,9.88
2023-02-22T17:04:50.010Z,10.00
2023-02-22T17:07:20.742Z,10.19
2023-02-22T17:09:51.158Z,10.35
2023-02-22T17:12:19.533Z,10.39
2023-02-22T17:14:47.804Z,10.40
2023-02-22T17:17:16.521Z,10.49
2023-02-22T17:19:44.770Z,10.67
2023-02-22T17:22:21.336Z,10.64
2023-02-22T17:24:49.629Z,10.55
2023-02-22T17:27:18.813Z,10.35
2023-02-22T17:29:48.021Z,10.20
2023-02-22T17:32:16.203Z,9.83
2023-02-22T17:34:44.392Z,9.55
2023-02-22T17:37:12.521Z,9.48
2023-02-22T17:39:40.698Z,9.64
2023-02-22T17:42:08.975Z,9.82
2023-02-22T17:44:39.203Z,9.90
2023-02-22T17:47:08.094Z,10.08
2023-02-22T17:49:36.268Z,10.09
2023-02-22T17:52:06.520Z,10.09
2023-02-22T17:54:34.615Z,10.08
2023-02-22T17:57:02.905Z,9.94
2023-02-22T17:59:31.724Z,9.86
2023-02-22T18:02:01.072Z,9.78
2023-02-22T18:04:29.232Z,9.81
2023-02-22T18:06:57.259Z,9.85
2023-02-22T18:09:25.855Z,9.88
2023-02-22T18:11:54.109Z,10.04
2023-02-22T18:14:23.836Z,10.09
2023-02-22T18:16:52.398Z,10.07
2023-02-22T18:19:23.101Z,10.01
2023-02-22T18:21:52.611Z,9.89
2023-02-22T18:24:20.818Z,9.77
2023-02-22T18:26:51.405Z,9.64
2023-02-22T18:29:19.624Z,9.71
2023-02-22T18:31:47.679Z,9.86
2023-02-22T18:34:17.703Z,9.92
2023-02-22T18:36:46.073Z,9.84
2023-02-22T18:39:14.458Z,9.73
2023-02-22T18:41:42.556Z,9.49
2023-02-22T18:44:11.246Z,9.43
2023-02-22T18:46:39.459Z,9.37
2023-02-22T18:49:07.762Z,9.40
2023-02-22T18:51:36.055Z,9.46
2023-02-22T18:54:04.155Z,9.47
2023-02-22T18:56:34.078Z,9.31
2023-02-22T18:59:04.286Z,9.14
2023-02-22T19:01:38.928Z,8.94
2023-02-22T19:04:12.690Z,8.94
2023-02-22T19:06:43.121Z,8.94
2023-02-22T19:09:11.283Z,8.90
2023-02-22T19:11:44.884Z,8.70
2023-02-22T19:14:13.595Z,8.71
2023-02-22T19:16:45.109Z,8.81
2023-02-22T19:19:15.065Z,9.00
2023-02-22T19:21:43.088Z,9.08
2023-02-22T19:24:11.267Z,9.19
2023-02-22T19:26:39.474Z,9.08
2023-02-22T19:29:08.650Z,8.96
2023-02-22T19:31:36.946Z,8.82
2023-02-22T19:34:11.229Z,8.87
2023-02-22T19:36:47.498Z,9.08
2023-02-22T19:39:17.405Z,9.19
2023-02-22T19:41:46.081Z,9.21
2023-02-22T19:44:14.320Z,9.17
2023-02-22T19:46:42.473Z,9.23
2023-02-22T19:49:10.610Z,9.16
2023-02-22T19:51:39.078Z,9.30
2023-02-22T19:54:11.964Z,9.48
2023-02-22T19:56:39.965Z,9.47
2023-02-22T19:59:13.788Z,9.56
2023-02-22T20:01:45.914Z,9.61
2023-02-22T20:04:24.453Z,9.55
2023-02-22T20:06:54.766Z,9.44
2023-02-22T20:09:30.033Z,9.32
2023-02-22T20:11:58.265Z,9.32
2023-02-22T20:14:28.594Z,9.35
2023-02-22T20:16:58.338Z,9.37
2023-02-22T20:19:27.358Z,9.33
2023-02-22T20:21:56.611Z,9.35
2023-02-22T20:24:25.163Z,9.36
2023-02-22T20:26:55.945Z,9.31
2023-02-22T20:29:34.820Z,9.24
2023-02-22T20:32:03.840Z,9.04
2023-02-22T20:34:36.386Z,8.78
2023-02-22T20:37:04.976Z,8.65
2023-02-22T20:39:33.203Z,8.58
2023-02-22T20:42:02.776Z,8.58
2023-02-22T20:44:31.072Z,8.63
2023-02-22T20:46:59.144Z,8.58
2023-02-22T20:49:27.599Z,8.42
2023-02-22T20:51:55.962Z,8.26
2023-02-22T20:54:24.444Z,8.13
2023-02-22T20:56:53.189Z,8.13
2023-02-22T20:59:22.619Z,8.10
2023-02-22T21:01:53.164Z,7.77
2023-02-22T21:04:24.220Z,7.47
2023-02-22T21:06:52.675Z,7.27
2023-02-22T21:09:22.965Z,7.14
2023-02-22T21:11:51.064Z,7.14
2023-02-22T21:14:20.200Z,7.18
2023-02-22T21:16:51.177Z,7.27
2023-02-22T21:19:26.564Z,7.33
2023-02-22T21:22:01.307Z,7.46
2023-02-22T21:24:29.762Z,7.40
2023-02-22T21:27:00.970Z,7.39
2023-02-22T21:29:29.473Z,7.07
2023-02-22T21:31:58.154Z,7.01
2023-02-22T21:34:26.456Z,7.00
2023-02-22T21:36:54.769Z,7.12
2023-02-22T21:39:28.399Z,7.32
2023-02-22T21:42:00.862Z,7.33
2023-02-22T21:44:29.880Z,7.22
2023-02-22T21:46:58.271Z,7.39
2023-02-22T21:49:26.523Z,7.64
2023-02-22T21:51:54.847Z,7.68
2023-02-22T21:54:23.496Z,7.60
2023-02-22T21:56:52.088Z,7.49
2023-02-22T21:59:23.871Z,7.51
2023-02-22T22:01:56.094Z,7.47
2023-02-22T22:04:30.159Z,7.28
2023-02-22T22:07:00.484Z,7.08
2023-02-22T22:09:33.017Z,7.15
2023-02-22T22:12:05.894Z,7.27
2023-02-22T22:14:34.952Z,7.30
2023-02-22T22:17:05.741Z,7.18
2023-02-22T22:19:39.417Z,7.06
2023-02-22T22:22:08.353Z,6.95
2023-02-22T22:24:37.105Z,6.83
2023-02-22T22:27:06.798Z,6.92
2023-02-22T22:29:34.964Z,7.22
2023-02-22T22:32:03.553Z,7.27
2023-02-22T22:34:34.464Z,7.11
2023-02-22T22:37:03.084Z,6.83
2023-02-22T22:39:31.831Z,6.62
2023-02-22T22:42:00.133Z,6.48
2023-02-22T22:44:32.953Z,6.46
2023-02-22T22:47:01.636Z,6.37
2023-02-22T22:49:31.520Z,6.31
2023-02-22T22:51:59.914Z,6.23
2023-02-22T22:54:28.914Z,6.29
2023-02-22T22:56:57.042Z,6.20
2023-02-22T22:59:25.426Z,6.06
2023-02-22T23:01:56.784Z,5.96
2023-02-22T23:04:25.665Z,6.02
2023-02-22T23:06:56.501Z,6.19
2023-02-22T23:09:27.445Z,6.29
2023-02-22T23:11:58.318Z,6.29
2023-02-22T23:14:31.419Z,6.22
2023-02-22T23:17:03.688Z,6.17
2023-02-22T23:19:34.701Z,6.15
2023-02-22T23:22:05.533Z,6.19
2023-02-22T23:24:36.682Z,6.25
2023-02-22T23:27:07.309Z,6.32
2023-02-22T23:29:40.761Z,6.44
2023-02-22T23:32:09.490Z,6.49
2023-02-22T23:34:41.250Z,6.53
2023-02-22T23:37:10.935Z,6.46
2023-02-22T23:39:40.224Z,6.35
2023-02-22T23:42:11.431Z,6.30
2023-02-22T23:44:40.512Z,6.38
2023-02-22T23:47:09.826Z,6.53
2023-02-22T23:49:38.716Z,6.40
2023-02-22T23:52:08.561Z,6.08
2023-02-22T23:54:40.594Z,5.93
2023-02-22T23:57:09.679Z,5.92
2023-02-22T23:59:40.516Z,6.07
